Spearfish, SD (57783)

9:43 PM MDT on August 01, 2014 (GMT -0600)
TMWC (KSDSPEAR1) Elev 3687 ft | 44.49 °N, 103.87 °W | Change Station

Current weather conditions updated 2 seconds ago

Clear
Clear
72.3 °F
Feels Like 77 °F
N
1.2
Wind Variable Wind from NE
Gusts 1.4 mph

Tomorrow is forecast to be Cooler than today.

Today
High -- | Low -- °F
--% Chance of Precip.
Yesterday
High -- | Low -- °F
Precip. -- in
5:42 AM 8:20 PM
Waxing Crescent, 32% visible
Pressure 30.14 in
Visibility 10.0 miles
Clouds Clear
Heat Index 77 °F
Dew Point 46 °F
Humidity 39%
Rainfall 0.00 in
Snow Depth Not available.
UV 0.0 out of 12
Pollen 8.10 out of 12
Air Quality Not available.
Flu Activity Not available.
METAR KSPF 020315Z AUTO 24005KT 10SM CLR 22/09 A3014 RMK AO2

More Conditions Fewer Conditions

Pressure 30.14 in
Visibility 10.0 miles
Clouds Clear
Heat Index 77 °F
Dew Point 46 °F
Humidity 39%
Rainfall 0.00 in
Snow Depth Not available.
UV 0.0 out of 12
Pollen 8.10 out of 12
Air Quality Not available.
Flu Activity Not available.
METAR KSPF 020315Z AUTO 24005KT 10SM CLR 22/09 A3014 RMK AO2

More Conditions Fewer Conditions

10-Day Weather Forecast

Almanac

Astronomy

Aug. 01, 2014 Rise Set
Actual Time 5:42 AM MDT 8:20 PM MDT
Civil Twilight 5:08 AM MDT 8:53 PM MDT
Nautical Twilight 4:27 AM MDT 9:35 PM MDT
Astronomical Twilight 3:38 AM MDT 10:23 PM MDT
Moon 11:23 AM MDT (8/1) 10:50 PM MDT (8/1)
Length of Visible Light 15h 44m
Length of Day
14h 38m
Tomorrow will be 2m 22s shorter.
Waxing Crescent, 32% of the Moon is Illuminated
Today
Waxing Crescent
Aug 3
First Quarter
Aug 10
Full
Aug 17
Last Quarter
Aug 25
New

Today's Extremes

State Highs State Lows

Community

WunderPhotos

Upload Photos

1,739,826 photos uploaded!

Nearby

Snow Depth

Station Depth Elevation
Blind Park 0 in 6890 ft

Earthquake Activity

City Distance Mag. Time & Date
No recent earthquake activity has been reported nearby.
Minimum magnitude displayed is 2.5.

Coastal Water Temperatures

Place Temperature
No Stations Reporting

Nearby Weather Stations

Station Location Temp. Heat Index Dew Point Humidity Wind Precip. Elev Updated Type
TMWC, Spearfish, SD 72.3 °F 77 °F 46 °F 39% NE  at  1.2 mph 0.00 in / hr 3687 ft 9:43 PM MDT Rapid Fire
Mountain Plains I, Spearfish, SD 74.3 °F 77 °F 43 °F 33% West  at  4.0 mph 0.00 in / hr 4030 ft 9:39 PM MDT Rapid Fire
Spearfish, SD 74.5 °F 77 °F 48 °F 39% West  at  4.5 mph 0.00 in / hr 3675 ft 9:40 PM MDT Normal
County Road 172, Sundance, WY 71.0 °F 77 °F 50 °F 47% WSW  at  3.0 mph 0.00 in / hr 4137 ft 9:41 PM MDT Normal
HADS ANNIE CREEK NEAR LEAD 6SW SD, Lead, SD 61 °F - - - North  at  - 0.00 in / hr 5125 ft 8:30 PM MDT MADIS
Dumont Trailhead, Lead, SD 51.0 °F - 49 °F 92% SSW  at  0.0 mph 0.00 in / hr 6070 ft 9:38 PM MDT Normal

Show More Stations Show Fewer Stations